Time;durP1;ratioP1;P1;durP2;ratioP2;P2;SDS_P1;SDS_P2;PMS_P1;PMS_P2;Temp;Humidity;BMP_temperature;BMP_pressure;BME280_temperature;BME280_humidity;BME280_pressure;Samples;Min_cycle;Max_cycle;Signal;HPM_P1;HPM_P2
2021/10/21 00:01:47;;;;;;;3.40;0.52;;;27.90;73.30;;;;;;5057000;28;20029;-71
2021/10/21 00:04:15;;;;;;;0.95;0.20;;;28.10;73.10;;;;;;5076009;28;20045;-71
2021/10/21 00:06:43;;;;;;;2.92;0.63;;;27.40;72.80;;;;;;5075720;28;20031;-71
2021/10/21 00:09:10;;;;;;;0.75;0.28;;;27.30;76.60;;;;;;5078431;28;20415;-71
2021/10/21 00:11:39;;;;;;;2.17;0.55;;;26.90;73.80;;;;;;5078414;28;20607;-70
2021/10/21 00:14:06;;;;;;;1.20;0.40;;;25.90;75.10;;;;;;5080610;28;20051;-70
2021/10/21 00:16:34;;;;;;;0.63;0.30;;;24.90;80.30;;;;;;5076602;28;20028;-70
2021/10/21 00:19:01;;;;;;;4.18;0.38;;;25.00;81.20;;;;;;5081129;28;20520;-71
2021/10/21 00:21:32;;;;;;;1.38;0.38;;;25.70;80.30;;;;;;5080282;28;20558;-71
2021/10/21 00:23:59;;;;;;;1.65;0.50;;;25.90;78.60;;;;;;5078624;28;20029;-72
2021/10/21 00:26:26;;;;;;;2.15;0.50;;;26.20;79.70;;;;;;5082247;28;20427;-72
2021/10/21 00:28:54;;;;;;;1.70;0.55;;;27.10;78.00;;;;;;5076326;28;20552;-71
2021/10/21 00:31:21;;;;;;;1.17;0.30;;;27.60;76.10;;;;;;5077568;28;20024;-71
2021/10/21 00:33:51;;;;;;;5.28;0.60;;;27.50;74.70;;;;;;5077151;28;20044;-71
2021/10/21 00:36:19;;;;;;;1.85;0.40;;;27.20;76.50;;;;;;5076977;28;20023;-71
2021/10/21 00:38:46;;;;;;;2.17;0.50;;;27.70;77.10;;;;;;5076285;28;20046;-73
2021/10/21 00:41:14;;;;;;;2.53;0.60;;;28.40;76.60;;;;;;5076963;28;20021;-72
2021/10/21 00:43:42;;;;;;;0.45;0.20;;;29.10;74.60;;;;;;5079227;28;20039;-72
2021/10/21 00:46:12;;;;;;;2.33;0.50;;;28.90;75.10;;;;;;5076995;28;20033;-71
2021/10/21 00:48:41;;;;;;;1.75;0.43;;;28.10;71.90;;;;;;5078950;28;20154;-74
2021/10/21 00:51:13;;;;;;;0.65;0.25;;;27.60;72.00;;;;;;5072226;28;20035;-73
2021/10/21 00:53:43;;;;;;;0.77;0.28;;;27.40;70.00;;;;;;5074477;28;20024;-73
2021/10/21 00:56:14;;;;;;;3.55;0.50;;;26.80;71.80;;;;;;5069570;28;20028;-72
2021/10/21 00:58:44;;;;;;;4.13;0.60;;;26.70;73.30;;;;;;5081805;28;20032;-71
2021/10/21 01:01:11;;;;;;;1.80;0.30;;;27.10;72.90;;;;;;5071935;28;20021;-70
2021/10/21 01:03:39;;;;;;;1.85;0.57;;;26.80;68.80;;;;;;5083297;28;20110;-71
2021/10/21 01:06:06;;;;;;;1.23;0.40;;;26.40;70.90;;;;;;5076812;28;20024;-71
2021/10/21 01:08:34;;;;;;;1.63;0.38;;;26.80;71.10;;;;;;5065694;28;20036;-71
2021/10/21 01:11:03;;;;;;;1.35;0.63;;;27.40;71.30;;;;;;5077944;28;21771;-73
2021/10/21 01:13:30;;;;;;;1.38;0.30;;;27.60;68.70;;;;;;5077621;28;20707;-71
2021/10/21 01:16:15;;;;;;;1.80;0.30;;;28.20;68.30;;;;;;5075994;28;20457;-72
2021/10/21 01:18:43;;;;;;;4.15;0.57;;;28.60;67.40;;;;;;5076597;28;20024;-72
2021/10/21 01:21:12;;;;;;;1.88;0.40;;;28.00;64.70;;;;;;5074872;28;20493;-72
2021/10/21 01:23:41;;;;;;;3.00;0.40;;;27.20;68.90;;;;;;5078439;28;20033;-70
2021/10/21 01:26:11;;;;;;;1.85;0.60;;;26.80;70.50;;;;;;5082119;28;20070;-72
2021/10/21 01:28:39;;;;;;;2.15;0.63;;;26.50;72.60;;;;;;5080477;28;20016;-69
2021/10/21 01:31:07;;;;;;;2.08;0.47;;;26.00;70.90;;;;;;5079227;28;20047;-71
2021/10/21 01:33:36;;;;;;;2.28;0.40;;;25.80;71.70;;;;;;5080526;28;20031;-71
2021/10/21 01:36:05;;;;;;;0.90;0.20;;;25.50;73.10;;;;;;5077666;28;20487;-72
2021/10/21 01:38:33;;;;;;;1.83;0.70;;;25.40;70.80;;;;;;5061054;28;20074;-71
2021/10/21 01:41:00;;;;;;;1.40;0.38;;;25.20;70.50;;;;;;5081333;28;20074;-72
2021/10/21 01:43:28;;;;;;;1.40;0.52;;;25.10;70.90;;;;;;5080981;28;20242;-71
2021/10/21 01:45:55;;;;;;;2.40;1.42;;;25.00;72.30;;;;;;5081320;28;20106;-71
2021/10/21 01:48:22;;;;;;;2.35;0.30;;;25.20;72.90;;;;;;5081433;28;20115;-70
2021/10/21 01:50:53;;;;;;;0.68;0.28;;;25.10;72.20;;;;;;5079258;28;20032;-72
2021/10/21 01:53:20;;;;;;;0.55;0.20;;;25.20;73.20;;;;;;5079059;28;20032;-71
2021/10/21 01:55:47;;;;;;;1.58;0.35;;;25.30;72.60;;;;;;5078132;28;20023;-72
2021/10/21 01:58:15;;;;;;;1.77;0.55;;;25.50;72.80;;;;;;5081400;28;20028;-73
2021/10/21 02:00:42;;;;;;;2.03;0.30;;;25.40;71.90;;;;;;5079311;28;20554;-72
2021/10/21 02:03:10;;;;;;;2.58;0.40;;;25.40;73.20;;;;;;5085978;28;20060;-72
2021/10/21 02:05:37;;;;;;;0.50;0.40;;;25.40;74.10;;;;;;5086155;28;20541;-72
2021/10/21 02:08:05;;;;;;;0.88;0.32;;;25.30;73.80;;;;;;5086075;28;20028;-72
2021/10/21 02:10:32;;;;;;;1.58;0.28;;;25.30;72.80;;;;;;5081385;28;20052;-73
2021/10/21 02:13:00;;;;;;;2.42;0.32;;;25.10;74.10;;;;;;5082290;28;20962;-72
2021/10/21 02:15:27;;;;;;;2.20;0.28;;;25.00;76.30;;;;;;5080932;28;20032;-72
2021/10/21 02:17:54;;;;;;;1.27;0.52;;;24.70;78.60;;;;;;5082651;28;20032;-72
2021/10/21 02:20:22;;;;;;;1.10;0.40;;;24.50;80.30;;;;;;5079625;28;21037;-72
2021/10/21 02:22:50;;;;;;;2.13;0.40;;;24.30;81.20;;;;;;5056382;28;20028;-71
2021/10/21 02:25:18;;;;;;;11.82;0.90;;;24.10;82.80;;;;;;5071390;28;20596;-70
2021/10/21 02:27:46;;;;;;;2.17;0.82;;;24.10;82.20;;;;;;5074383;28;20501;-71
2021/10/21 02:30:15;;;;;;;0.75;0.38;;;24.00;82.80;;;;;;5077776;28;20106;-71
2021/10/21 02:32:42;;;;;;;4.65;1.48;;;24.00;84.00;;;;;;5079975;28;20987;-70
2021/10/21 02:35:11;;;;;;;1.58;0.60;;;24.00;83.30;;;;;;5061679;28;20035;-73
2021/10/21 02:37:40;;;;;;;3.22;0.50;;;24.00;83.00;;;;;;5081693;28;20115;-72
2021/10/21 02:40:12;;;;;;;0.68;0.45;;;24.10;83.00;;;;;;5080741;28;20129;-70
2021/10/21 02:42:40;;;;;;;4.75;0.45;;;24.10;82.20;;;;;;5079352;28;20428;-71
2021/10/21 02:45:09;;;;;;;1.83;0.60;;;24.10;81.60;;;;;;5083973;28;20111;-72
2021/10/21 02:47:36;;;;;;;0.88;0.30;;;24.10;82.10;;;;;;5076582;28;20023;-71
2021/10/21 02:50:04;;;;;;;2.28;0.38;;;24.00;81.30;;;;;;5085470;28;20039;-72
2021/10/21 02:52:32;;;;;;;2.53;0.52;;;24.00;81.30;;;;;;5077083;28;20032;-72
2021/10/21 02:54:59;;;;;;;3.25;0.68;;;23.80;81.40;;;;;;5079305;28;20028;-73
2021/10/21 02:57:26;;;;;;;1.80;0.40;;;23.70;82.30;;;;;;5077541;28;20850;-70
2021/10/21 02:59:54;;;;;;;2.00;0.30;;;23.70;82.80;;;;;;5081671;28;20133;-72
2021/10/21 03:02:22;;;;;;;1.48;0.40;;;23.60;83.70;;;;;;5069389;28;20040;-72
2021/10/21 03:04:50;;;;;;;4.65;0.47;;;23.40;83.80;;;;;;5080542;28;20017;-70
2021/10/21 03:07:17;;;;;;;0.73;0.32;;;23.20;84.50;;;;;;5077497;28;20020;-72
2021/10/21 03:09:44;;;;;;;2.55;0.50;;;23.10;85.00;;;;;;5080566;28;20024;-72
2021/10/21 03:12:12;;;;;;;4.40;0.55;;;23.10;85.00;;;;;;5075633;28;20032;-71
2021/10/21 03:14:39;;;;;;;2.50;0.35;;;23.10;85.30;;;;;;5080986;28;20020;-73
2021/10/21 03:17:07;;;;;;;1.38;0.70;;;23.10;85.40;;;;;;5077446;28;20034;-73
2021/10/21 03:19:35;;;;;;;1.92;0.30;;;23.20;84.70;;;;;;5077787;28;20016;-70
2021/10/21 03:22:02;;;;;;;1.30;0.40;;;23.20;84.10;;;;;;5080686;28;20039;-73
2021/10/21 03:24:30;;;;;;;1.20;0.40;;;23.20;84.40;;;;;;5075415;28;20114;-72
2021/10/21 03:26:57;;;;;;;3.22;0.73;;;23.30;83.30;;;;;;5078048;28;20093;-73
2021/10/21 03:29:24;;;;;;;1.92;0.40;;;23.40;83.40;;;;;;5075754;28;20063;-72
2021/10/21 03:31:53;;;;;;;4.28;0.38;;;23.50;83.40;;;;;;5078750;28;20562;-76
2021/10/21 03:34:21;;;;;;;1.50;0.43;;;23.60;82.80;;;;;;5081784;28;20021;-72
2021/10/21 03:36:48;;;;;;;0.75;0.30;;;23.80;82.30;;;;;;5077666;28;20036;-71
2021/10/21 03:39:16;;;;;;;1.90;0.40;;;23.90;82.60;;;;;;5077244;28;20028;-72
2021/10/21 03:41:43;;;;;;;3.95;0.47;;;24.10;81.70;;;;;;5076422;28;20449;-72
2021/10/21 03:44:10;;;;;;;1.65;0.30;;;24.30;81.10;;;;;;5079795;28;20039;-71
2021/10/21 03:46:39;;;;;;;0.40;0.20;;;24.40;82.30;;;;;;5075700;28;20530;-72
2021/10/21 03:49:07;;;;;;;3.78;0.38;;;24.40;82.40;;;;;;5075861;28;20390;-72
2021/10/21 03:51:34;;;;;;;0.40;0.15;;;24.60;80.70;;;;;;5078997;28;20020;-72
2021/10/21 03:54:02;;;;;;;2.47;0.73;;;24.90;79.30;;;;;;5075320;28;20028;-72
2021/10/21 03:56:29;;;;;;;1.65;0.30;;;24.90;78.60;;;;;;5079154;28;20065;-73
2021/10/21 03:58:56;;;;;;;0.60;0.30;;;25.00;78.00;;;;;;5061230;28;20752;-71
2021/10/21 04:01:24;;;;;;;1.10;0.35;;;25.00;78.40;;;;;;5076849;28;20062;-71
2021/10/21 04:03:51;;;;;;;2.45;0.40;;;25.10;78.60;;;;;;5073983;28;20036;-72
2021/10/21 04:06:18;;;;;;;3.80;0.40;;;25.40;78.50;;;;;;5073876;28;20032;-72
2021/10/21 04:08:46;;;;;;;1.35;0.40;;;26.10;79.00;;;;;;5080716;28;20056;-72
2021/10/21 04:11:13;;;;;;;2.60;0.57;;;26.50;77.40;;;;;;5081181;28;20036;-72
2021/10/21 04:13:41;;;;;;;3.80;1.17;;;26.60;78.70;;;;;;5078078;28;20443;-71
2021/10/21 04:16:08;;;;;;;4.00;0.75;;;26.50;77.30;;;;;;5082644;28;20406;-72
2021/10/21 04:18:35;;;;;;;1.58;0.52;;;26.10;77.80;;;;;;5079441;28;20078;-72
2021/10/21 04:21:03;;;;;;;2.95;0.50;;;25.70;77.40;;;;;;5077262;28;20362;-71
2021/10/21 04:23:30;;;;;;;0.95;0.30;;;25.40;76.80;;;;;;5074846;28;20037;-73
2021/10/21 04:25:57;;;;;;;2.28;0.45;;;25.30;77.80;;;;;;5079308;28;20139;-72
2021/10/21 04:28:26;;;;;;;2.15;0.50;;;25.00;78.90;;;;;;5079875;28;20032;-71
2021/10/21 04:30:56;;;;;;;1.63;0.47;;;24.90;79.30;;;;;;5080978;28;20090;-71
2021/10/21 04:33:23;;;;;;;0.68;0.30;;;24.90;79.00;;;;;;5079116;28;20031;-73
2021/10/21 04:35:51;;;;;;;1.40;0.35;;;25.00;77.50;;;;;;5078609;28;20078;-73
2021/10/21 04:38:18;;;;;;;3.60;0.38;;;25.20;76.20;;;;;;5062531;28;20629;-71
2021/10/21 04:40:46;;;;;;;2.45;0.40;;;25.30;76.10;;;;;;5076872;28;20036;-71
2021/10/21 04:43:13;;;;;;;1.67;0.60;;;25.50;75.60;;;;;;5077783;28;20055;-72
2021/10/21 04:45:41;;;;;;;1.73;0.57;;;25.60;75.40;;;;;;5074579;28;20597;-72
2021/10/21 04:48:10;;;;;;;0.70;0.38;;;25.70;74.90;;;;;;5075556;28;20033;-72
2021/10/21 04:50:37;;;;;;;2.03;0.40;;;26.20;74.00;;;;;;5055836;28;20411;-71
2021/10/21 04:53:05;;;;;;;2.72;0.38;;;26.40;72.50;;;;;;5073968;28;20132;-71
2021/10/21 04:55:35;;;;;;;4.22;0.63;;;26.10;71.70;;;;;;5076431;28;20029;-70
2021/10/21 04:58:06;;;;;;;0.32;0.20;;;26.00;74.10;;;;;;5075361;28;20044;-72
2021/10/21 05:00:34;;;;;;;1.95;0.40;;;26.10;72.90;;;;;;5074490;28;20073;-72
2021/10/21 05:03:13;;;;;;;3.58;0.50;;;26.40;72.90;;;;;;5080379;28;20044;-72
2021/10/21 05:05:43;;;;;;;1.30;0.28;;;26.60;72.40;;;;;;5081561;28;20082;-70
2021/10/21 05:08:11;;;;;;;0.82;0.40;;;26.70;70.80;;;;;;5077963;28;20028;-73
2021/10/21 05:10:38;;;;;;;2.13;0.55;;;26.50;70.30;;;;;;5076900;28;20035;-73
2021/10/21 05:13:05;;;;;;;2.10;0.60;;;26.40;70.80;;;;;;5079543;28;20048;-73
2021/10/21 05:15:33;;;;;;;1.00;0.50;;;26.30;71.00;;;;;;5077586;28;20028;-72
2021/10/21 05:18:03;;;;;;;1.83;0.40;;;26.40;71.00;;;;;;5077113;28;20493;-74
2021/10/21 05:20:31;;;;;;;0.93;0.30;;;26.40;70.60;;;;;;5081831;28;20050;-71
2021/10/21 05:22:59;;;;;;;2.67;0.60;;;26.50;71.60;;;;;;5078366;28;20907;-71
2021/10/21 05:25:26;;;;;;;0.50;0.30;;;26.40;70.50;;;;;;5083009;28;20099;-72
2021/10/21 05:27:53;;;;;;;0.93;0.25;;;26.50;72.20;;;;;;5079158;28;20391;-73
2021/10/21 05:30:22;;;;;;;2.13;0.40;;;26.50;70.80;;;;;;5081879;28;20052;-70
2021/10/21 05:32:49;;;;;;;0.40;0.20;;;26.30;70.50;;;;;;5080379;28;20123;-72
2021/10/21 05:35:17;;;;;;;1.45;0.30;;;25.90;71.00;;;;;;5083114;28;20024;-72
2021/10/21 05:37:44;;;;;;;1.23;0.30;;;25.70;71.70;;;;;;5059902;28;20127;-72
2021/10/21 05:40:13;;;;;;;2.53;0.40;;;25.50;72.20;;;;;;5082000;28;20186;-71
2021/10/21 05:42:41;;;;;;;0.70;0.28;;;25.30;72.70;;;;;;5076744;28;20035;-70
2021/10/21 05:45:08;;;;;;;0.90;0.50;;;25.00;72.80;;;;;;5078156;28;20035;-71
2021/10/21 05:47:36;;;;;;;0.60;0.30;;;24.80;73.10;;;;;;5083405;28;20016;-72
2021/10/21 05:50:05;;;;;;;12.15;1.35;;;24.90;73.40;;;;;;5082621;28;20032;-71
2021/10/21 05:52:32;;;;;;;1.02;0.30;;;25.00;73.30;;;;;;5084821;28;20044;-71
2021/10/21 05:54:59;;;;;;;0.75;0.30;;;25.20;72.60;;;;;;5093348;28;20368;-72
2021/10/21 05:57:27;;;;;;;3.63;0.40;;;25.30;72.30;;;;;;5091746;28;20020;-71
2021/10/21 05:59:54;;;;;;;0.75;0.25;;;25.30;72.40;;;;;;5080257;28;20099;-71
2021/10/21 06:02:22;;;;;;;2.00;0.40;;;25.20;71.80;;;;;;5064348;28;20052;-71
2021/10/21 06:04:49;;;;;;;1.73;0.35;;;25.00;72.90;;;;;;5093143;28;20475;-71
2021/10/21 06:07:16;;;;;;;0.50;0.30;;;24.80;73.40;;;;;;5080839;28;20502;-70
2021/10/21 06:09:44;;;;;;;2.05;0.30;;;24.70;74.20;;;;;;5077973;28;20032;-70
2021/10/21 06:12:12;;;;;;;0.65;0.50;;;24.70;74.20;;;;;;5085342;28;20036;-71
2021/10/21 06:14:41;;;;;;;1.08;0.35;;;24.70;74.40;;;;;;5083213;28;20031;-70
2021/10/21 06:17:08;;;;;;;0.82;0.30;;;24.80;74.10;;;;;;5075999;28;20023;-70
2021/10/21 06:19:35;;;;;;;0.65;0.63;;;24.70;74.60;;;;;;5078267;28;20520;-70
2021/10/21 06:22:09;;;;;;;0.98;0.38;;;24.70;74.40;;;;;;5076661;28;20038;-70
2021/10/21 06:24:37;;;;;;;2.13;0.30;;;24.50;74.80;;;;;;5074551;28;20032;-70
2021/10/21 06:27:04;;;;;;;2.40;0.50;;;24.30;75.60;;;;;;5079197;28;20038;-71
2021/10/21 06:29:32;;;;;;;0.40;0.22;;;24.10;76.00;;;;;;5067681;28;20363;-71
2021/10/21 06:32:00;;;;;;;1.05;0.50;;;23.90;76.60;;;;;;5078740;28;20581;-72
2021/10/21 06:34:28;;;;;;;0.70;0.68;;;23.80;76.80;;;;;;5086799;28;20027;-72
2021/10/21 06:36:55;;;;;;;2.60;0.40;;;23.60;77.30;;;;;;5081469;28;20024;-70
2021/10/21 06:39:23;;;;;;;1.90;0.40;;;23.50;77.90;;;;;;5082795;28;20085;-72
2021/10/21 06:41:50;;;;;;;2.38;0.75;;;23.40;78.70;;;;;;5086858;28;20028;-71
2021/10/21 06:44:17;;;;;;;4.68;2.60;;;23.50;78.70;;;;;;5077162;28;20532;-71
2021/10/21 06:46:47;;;;;;;2.15;1.05;;;23.50;78.50;;;;;;5077428;28;20050;-71
2021/10/21 06:49:14;;;;;;;1.75;0.35;;;23.50;79.10;;;;;;5084525;28;20021;-71
2021/10/21 06:51:42;;;;;;;1.30;0.40;;;23.50;79.50;;;;;;5060626;28;20032;-71
2021/10/21 06:54:10;;;;;;;2.67;0.40;;;23.50;79.60;;;;;;5074822;28;20391;-71
2021/10/21 06:56:37;;;;;;;1.10;0.32;;;23.50;80.00;;;;;;5069662;28;20678;-71
2021/10/21 06:59:05;;;;;;;0.73;0.32;;;23.50;80.20;;;;;;5090367;28;20660;-71
2021/10/21 07:01:32;;;;;;;3.45;0.50;;;23.40;79.90;;;;;;5088220;28;20032;-70
2021/10/21 07:04:02;;;;;;;3.75;0.60;;;23.30;80.00;;;;;;5085506;28;20052;-71
2021/10/21 07:06:30;;;;;;;0.40;0.30;;;23.20;81.10;;;;;;5080343;28;20516;-70
2021/10/21 07:08:57;;;;;;;0.63;0.30;;;23.10;81.60;;;;;;5072907;28;20572;-71
2021/10/21 07:11:25;;;;;;;1.25;0.50;;;23.00;82.00;;;;;;5090725;28;20487;-71
2021/10/21 07:13:52;;;;;;;0.52;0.30;;;22.80;81.60;;;;;;5089991;28;20062;-70
2021/10/21 07:16:20;;;;;;;1.63;0.90;;;22.70;81.90;;;;;;5090169;28;20030;-71
2021/10/21 07:18:47;;;;;;;4.35;0.40;;;22.60;82.10;;;;;;5082896;28;20024;-70
2021/10/21 07:21:17;;;;;;;2.10;0.40;;;22.50;82.80;;;;;;5084349;28;20054;-71
2021/10/21 07:23:46;;;;;;;1.10;0.32;;;22.40;83.40;;;;;;5076813;28;20032;-70
2021/10/21 07:26:14;;;;;;;1.65;0.20;;;22.30;84.10;;;;;;5075514;28;20116;-70
2021/10/21 07:28:42;;;;;;;0.30;0.22;;;22.20;84.70;;;;;;5090138;28;20039;-71
2021/10/21 07:31:14;;;;;;;2.40;0.32;;;22.10;85.50;;;;;;5085144;28;20069;-69
2021/10/21 07:33:41;;;;;;;1.77;0.73;;;22.00;86.70;;;;;;5090785;28;20024;-71
2021/10/21 07:36:09;;;;;;;1.70;0.88;;;21.90;86.40;;;;;;5079989;28;20063;-70
2021/10/21 07:38:37;;;;;;;0.32;0.30;;;21.90;86.60;;;;;;5073859;28;20031;-70
2021/10/21 07:41:04;;;;;;;0.60;0.20;;;21.80;86.30;;;;;;5082506;28;20482;-70
2021/10/21 07:43:36;;;;;;;1.75;0.20;;;21.70;86.30;;;;;;5089687;28;20031;-70
2021/10/21 07:46:05;;;;;;;0.50;0.20;;;21.60;86.90;;;;;;5074874;28;20020;-70
2021/10/21 07:48:32;;;;;;;1.90;0.40;;;21.60;87.20;;;;;;5070549;28;20805;-71
2021/10/21 07:51:00;;;;;;;0.77;0.68;;;21.50;87.90;;;;;;5086255;28;20063;-71
2021/10/21 07:53:31;;;;;;;1.25;0.40;;;21.40;88.40;;;;;;5082882;28;20103;-71
2021/10/21 07:56:01;;;;;;;1.50;0.85;;;21.40;89.00;;;;;;5088239;28;20779;-69
2021/10/21 07:58:28;;;;;;;1.63;0.30;;;21.30;89.80;;;;;;5078237;28;20455;-70
2021/10/21 08:00:59;;;;;;;3.50;0.43;;;21.20;90.30;;;;;;5078882;28;20543;-70
2021/10/21 08:03:26;;;;;;;2.38;0.45;;;21.10;90.80;;;;;;5085630;28;20020;-71
2021/10/21 08:05:55;;;;;;;2.28;0.50;;;21.10;91.50;;;;;;5082219;28;20042;-71
2021/10/21 08:08:24;;;;;;;1.30;0.40;;;21.00;91.80;;;;;;5089124;28;20032;-71
2021/10/21 08:10:52;;;;;;;1.35;0.50;;;21.00;92.40;;;;;;5079703;28;20032;-70
2021/10/21 08:13:19;;;;;;;1.58;0.40;;;20.90;93.00;;;;;;5079850;28;20028;-71
2021/10/21 08:15:47;;;;;;;2.05;0.40;;;20.80;93.20;;;;;;5086450;28;20029;-72
2021/10/21 08:18:15;;;;;;;1.95;0.35;;;20.70;93.70;;;;;;5084515;28;20050;-71
2021/10/21 08:20:45;;;;;;;2.55;0.50;;;20.70;93.90;;;;;;5074990;28;20475;-70
2021/10/21 08:23:13;;;;;;;0.70;0.40;;;20.60;94.30;;;;;;5087170;28;20059;-72
2021/10/21 08:25:41;;;;;;;1.02;0.80;;;20.50;94.70;;;;;;5085715;28;20024;-71
2021/10/21 08:28:09;;;;;;;1.20;0.35;;;20.50;95.00;;;;;;5080179;28;20360;-71
2021/10/21 08:30:40;;;;;;;4.72;0.93;;;20.40;95.50;;;;;;5082595;28;20066;-72
2021/10/21 08:33:08;;;;;;;2.25;0.60;;;20.40;95.70;;;;;;5077046;28;20024;-71
2021/10/21 08:35:36;;;;;;;1.00;0.52;;;20.40;96.00;;;;;;5074078;28;20139;-70
2021/10/21 08:38:04;;;;;;;3.10;0.30;;;20.30;96.50;;;;;;5083585;28;20098;-73
2021/10/21 08:40:34;;;;;;;0.77;0.70;;;20.30;97.00;;;;;;5081662;28;20070;-71
2021/10/21 08:43:07;;;;;;;0.95;0.32;;;20.20;97.40;;;;;;5080169;28;20038;-72
2021/10/21 08:45:34;;;;;;;1.25;0.40;;;20.20;97.80;;;;;;5089523;28;20024;-71
2021/10/21 08:48:07;;;;;;;2.25;0.30;;;20.10;98.20;;;;;;5071655;28;20024;-72
2021/10/21 08:50:38;;;;;;;1.42;0.30;;;20.10;98.80;;;;;;5089027;28;20066;-72
2021/10/21 08:53:06;;;;;;;4.57;0.60;;;20.00;99.40;;;;;;5086819;28;20063;-71
2021/10/21 08:55:35;;;;;;;2.15;0.47;;;19.90;99.80;;;;;;5083530;28;20474;-71
2021/10/21 08:58:04;;;;;;;1.25;0.50;;;19.90;99.90;;;;;;5069592;28;20032;-73
2021/10/21 09:00:34;;;;;;;1.98;0.40;;;19.90;99.90;;;;;;5076157;28;20036;-72
2021/10/21 09:03:04;;;;;;;0.85;0.40;;;19.90;99.90;;;;;;5077209;28;20050;-70
2021/10/21 09:05:50;;;;;;;1.05;0.77;;;19.90;99.90;;;;;;5077091;28;20051;-73
2021/10/21 09:08:20;;;;;;;;;;;19.80;99.90;;;;;;5077713;28;20025;-73
2021/10/21 09:10:53;;;;;;;3.22;1.70;;;19.80;99.90;;;;;;5074914;28;19998;-70
2021/10/21 09:13:26;;;;;;;3.78;0.70;;;19.80;99.90;;;;;;5081495;28;20028;-70
2021/10/21 09:15:56;;;;;;;0.95;0.60;;;19.70;99.90;;;;;;5077099;28;20058;-72
2021/10/21 09:18:40;;;;;;;1.88;0.47;;;19.70;99.90;;;;;;5088266;28;20103;-72
2021/10/21 09:21:07;;;;;;;0.88;0.30;;;19.50;99.90;;;;;;5084196;28;20134;-72
2021/10/21 09:23:35;;;;;;;0.57;0.30;;;19.50;99.90;;;;;;5081251;28;20028;-71
2021/10/21 09:26:10;;;;;;;1.67;0.30;;;19.50;99.90;;;;;;5057744;28;20036;-73
2021/10/21 09:28:38;;;;;;;1.42;0.40;;;19.40;99.90;;;;;;5073038;28;21529;-71
2021/10/21 09:31:08;;;;;;;2.17;0.30;;;19.40;99.90;;;;;;5078750;28;20535;-71
2021/10/21 09:33:46;;;;;;;2.47;0.32;;;19.30;99.90;;;;;;5075671;28;20024;-71
2021/10/21 09:36:17;;;;;;;0.80;0.60;;;19.30;99.90;;;;;;5074102;28;20047;-72
2021/10/21 09:38:55;;;;;;;0.50;0.50;;;19.20;99.90;;;;;;5077069;28;20107;-72
2021/10/21 09:41:25;;;;;;;2.40;0.90;;;19.10;99.90;;;;;;5075442;28;20072;-73
2021/10/21 09:43:56;;;;;;;2.70;0.93;;;19.00;99.90;;;;;;5060207;28;20032;-71
2021/10/21 09:46:42;;;;;;;3.45;0.63;;;18.90;99.90;;;;;;5078234;28;20073;-72
2021/10/21 09:49:28;;;;;;;1.85;0.45;;;18.80;99.90;;;;;;5079743;28;20030;-70
2021/10/21 09:51:57;;;;;;;1.40;0.50;;;18.70;99.90;;;;;;5079791;28;20099;-71
2021/10/21 09:54:25;;;;;;;1.05;0.73;;;18.60;99.90;;;;;;5078619;28;20478;-71
2021/10/21 09:57:03;;;;;;;3.15;1.00;;;18.60;99.90;;;;;;5082435;28;20028;-73
2021/10/21 09:59:35;;;;;;;1.75;0.80;;;18.50;99.90;;;;;;5076932;28;20035;-72
2021/10/21 10:02:15;;;;;;;2.15;0.80;;;18.50;99.90;;;;;;5079089;28;20034;-72
2021/10/21 10:04:50;;;;;;;2.97;0.55;;;18.40;99.90;;;;;;5078803;28;20549;-74
2021/10/21 10:07:27;;;;;;;2.97;0.45;;;18.40;99.90;;;;;;5079145;28;20032;-72
2021/10/21 10:09:59;;;;;;;2.65;0.68;;;18.30;99.90;;;;;;5082146;28;20037;-72
2021/10/21 10:12:32;;;;;;;1.38;0.40;;;18.30;99.90;;;;;;5067122;28;20040;-71
2021/10/21 10:15:00;;;;;;;0.88;0.50;;;18.30;99.90;;;;;;5082941;28;20060;-73
2021/10/21 10:17:30;;;;;;;0.98;0.50;;;18.20;99.90;;;;;;5076027;28;20561;-72
2021/10/21 10:19:57;;;;;;;1.25;0.45;;;18.20;99.90;;;;;;5078066;28;20035;-73
2021/10/21 10:22:32;;;;;;;0.85;0.57;;;18.10;99.90;;;;;;5077247;28;20089;-73
2021/10/21 10:24:59;;;;;;;1.75;0.43;;;18.10;99.90;;;;;;5078850;28;20120;-74
2021/10/21 10:27:30;;;;;;;1.30;0.63;;;18.10;99.90;;;;;;5078584;28;20028;-71
2021/10/21 10:30:00;;;;;;;2.80;0.55;;;18.00;99.90;;;;;;5081459;28;20103;-72
2021/10/21 10:32:47;;;;;;;1.33;0.40;;;18.00;99.90;;;;;;5077454;28;20035;-73
2021/10/21 10:35:32;;;;;;;1.15;0.60;;;17.90;99.90;;;;;;5083149;28;20508;-71
2021/10/21 10:38:07;;;;;;;0.73;0.55;;;17.90;99.90;;;;;;5060753;28;20020;-72
2021/10/21 10:40:47;;;;;;;1.10;0.70;;;17.80;99.90;;;;;;5077998;28;20028;-71
2021/10/21 10:43:18;;;;;;;1.45;0.70;;;17.80;99.90;;;;;;5078613;28;20624;-72
2021/10/21 10:45:52;;;;;;;0.43;0.30;;;17.70;99.90;;;;;;5078894;28;20539;-72
2021/10/21 10:48:49;;;;;;;2.05;0.70;;;17.70;99.90;;;;;;5081471;28;20031;-73
2021/10/21 10:51:17;;;;;;;1.05;0.60;;;17.60;99.90;;;;;;5076027;28;20045;-71
2021/10/21 10:53:52;;;;;;;0.50;0.35;;;17.60;99.90;;;;;;5081588;28;20027;-72
2021/10/21 10:56:38;;;;;;;1.77;0.73;;;17.50;99.90;;;;;;5076099;28;20059;-71
2021/10/21 10:59:23;;;;;;;0.93;0.77;;;17.50;99.90;;;;;;5085845;28;20496;-72
2021/10/21 11:01:53;;;;;;;2.20;0.80;;;17.50;99.90;;;;;;5078522;28;20359;-72
2021/10/21 11:04:54;;;;;;;3.03;0.70;;;17.40;99.90;;;;;;5083854;28;20035;-71
2021/10/21 11:07:48;;;;;;;3.03;0.90;;;17.40;99.90;;;;;;5076936;28;20654;-71
2021/10/21 11:10:17;;;;;;;1.52;0.77;;;17.40;99.90;;;;;;5083365;28;20085;-72
2021/10/21 11:12:51;;;;;;;1.65;0.40;;;17.40;99.90;;;;;;5078281;28;20032;-73
2021/10/21 11:15:33;;;;;;;1.75;0.63;;;17.30;99.90;;;;;;5077520;28;20462;-72
2021/10/21 11:18:04;;;;;;;2.65;1.45;;;17.30;99.90;;;;;;5082876;28;20032;-75
2021/10/21 11:20:34;;;;;;;1.25;0.90;;;17.30;99.90;;;;;;5078097;28;20012;-71
2021/10/21 11:23:28;;;;;;;1.20;0.65;;;17.30;99.90;;;;;;5079751;28;20028;-72
2021/10/21 11:26:00;;;;;;;2.47;1.10;;;17.20;99.90;;;;;;5079234;28;20053;-73
2021/10/21 11:28:33;;;;;;;3.08;1.10;;;17.20;99.90;;;;;;5080289;28;20028;-74
2021/10/21 11:31:02;;;;;;;3.47;0.90;;;17.20;99.90;;;;;;5078542;28;20024;-73
2021/10/21 11:33:32;;;;;;;1.90;1.00;;;17.10;99.90;;;;;;5082734;28;20108;-76
2021/10/21 11:36:03;;;;;;;2.25;1.20;;;17.10;99.90;;;;;;5079882;28;20020;-73
2021/10/21 11:38:32;;;;;;;2.08;0.90;;;17.10;99.90;;;;;;5084490;28;20430;-73
2021/10/21 11:41:01;;;;;;;1.77;1.13;;;17.00;99.90;;;;;;5081246;28;20029;-73
2021/10/21 11:43:38;;;;;;;1.67;1.00;;;17.00;99.90;;;;;;5079631;28;20017;-73
2021/10/21 11:46:08;;;;;;;1.65;0.82;;;17.00;99.90;;;;;;5080222;28;20032;-73
2021/10/21 11:48:39;;;;;;;2.75;1.00;;;17.00;99.90;;;;;;5082311;28;20367;-74
2021/10/21 11:51:13;;;;;;;2.13;1.10;;;16.90;99.90;;;;;;5080816;28;20048;-74
2021/10/21 11:53:41;;;;;;;4.07;1.35;;;16.90;99.90;;;;;;5077463;28;20021;-73
2021/10/21 11:56:10;;;;;;;5.28;1.52;;;16.90;99.90;;;;;;5061763;28;20028;-74
2021/10/21 11:58:40;;;;;;;1.30;0.85;;;16.90;99.90;;;;;;5078420;28;20036;-72
2021/10/21 12:01:10;;;;;;;4.30;1.45;;;16.90;99.90;;;;;;5070637;28;20032;-73
2021/10/21 12:03:39;;;;;;;4.40;1.58;;;16.80;99.90;;;;;;5081562;28;20071;-72
2021/10/21 12:06:09;;;;;;;2.33;1.95;;;16.80;99.90;;;;;;5083426;28;20031;-72
2021/10/21 12:08:37;;;;;;;2.92;1.20;;;16.80;99.90;;;;;;5078698;28;20028;-72
2021/10/21 12:11:07;;;;;;;2.55;1.33;;;16.70;99.90;;;;;;5080368;28;20047;-74
2021/10/21 12:13:37;;;;;;;2.35;1.13;;;16.70;99.90;;;;;;5078692;28;20016;-72
2021/10/21 12:16:15;;;;;;;3.05;1.90;;;16.70;99.90;;;;;;5077928;28;20016;-73
2021/10/21 12:18:42;;;;;;;4.90;1.50;;;16.70;99.90;;;;;;5078245;28;20490;-72
2021/10/21 12:21:10;;;;;;;3.53;0.88;;;16.60;99.90;;;;;;5085140;28;20036;-74
2021/10/21 12:23:51;;;;;;;3.47;1.20;;;16.60;99.90;;;;;;5079521;28;20548;-73
2021/10/21 12:26:29;;;;;;;3.20;1.83;;;16.60;99.90;;;;;;5087342;28;20390;-72
2021/10/21 12:29:11;;;;;;;6.28;1.23;;;16.50;99.90;;;;;;5076143;28;20038;-72
2021/10/21 12:31:40;;;;;;;5.85;0.98;;;16.50;99.90;;;;;;5075902;28;20096;-73
2021/10/21 12:34:13;;;;;;;4.13;1.23;;;16.50;99.90;;;;;;5086088;28;20348;-73
2021/10/21 12:36:46;;;;;;;3.03;1.20;;;16.40;99.90;;;;;;5079134;28;20082;-73
2021/10/21 12:39:18;;;;;;;1.95;0.90;;;16.40;99.90;;;;;;5082228;28;20027;-72
2021/10/21 12:41:55;;;;;;;3.20;1.02;;;16.40;99.90;;;;;;5084983;28;20093;-73
2021/10/21 12:44:28;;;;;;;2.90;1.38;;;16.40;99.90;;;;;;5075523;28;20031;-72
2021/10/21 12:47:24;;;;;;;4.80;1.45;;;16.40;99.90;;;;;;5085665;28;20031;-72
2021/10/21 12:50:00;;;;;;;5.38;1.58;;;16.40;99.90;;;;;;5080502;28;20055;-72
2021/10/21 12:52:56;;;;;;;5.65;1.98;;;16.40;99.90;;;;;;5079629;28;20083;-72
2021/10/21 12:55:29;;;;;;;5.83;1.47;;;16.40;99.90;;;;;;5078316;28;20544;-73
2021/10/21 12:58:09;;;;;;;3.53;1.67;;;16.40;99.90;;;;;;5073732;28;20089;-73
2021/10/21 13:00:46;;;;;;;3.17;1.42;;;16.30;99.90;;;;;;5079047;28;20039;-73
2021/10/21 13:03:17;;;;;;;2.08;1.27;;;16.30;99.90;;;;;;5079464;28;20049;-72